createdAt,value
2023-04-04T00:01:14.144Z,0.33
2023-04-04T00:03:42.804Z,0.31
2023-04-04T00:06:10.939Z,0.27
2023-04-04T00:08:38.949Z,0.21
2023-04-04T00:11:06.944Z,0.16
2023-04-04T00:13:35.304Z,0.13
2023-04-04T00:16:03.299Z,0.08
2023-04-04T00:18:31.468Z,0.04
2023-04-04T00:20:59.436Z,0.01
2023-04-04T00:23:27.317Z,-0.04
2023-04-04T00:25:55.341Z,-0.08
2023-04-04T00:28:23.310Z,-0.12
2023-04-04T00:30:54.628Z,-0.16
2023-04-04T00:33:22.714Z,-0.17
2023-04-04T00:35:50.840Z,-0.20
2023-04-04T00:38:18.849Z,-0.22
2023-04-04T00:40:49.281Z,-0.24
2023-04-04T00:43:17.466Z,-0.25
2023-04-04T00:45:46.553Z,-0.29
2023-04-04T00:48:14.639Z,-0.31
2023-04-04T00:50:42.665Z,-0.34
2023-04-04T00:53:10.876Z,-0.38
2023-04-04T00:55:39.440Z,-0.42
2023-04-04T00:58:07.465Z,-0.45
2023-04-04T01:00:36.092Z,-0.48
2023-04-04T01:03:05.926Z,-0.53
2023-04-04T01:05:34.030Z,-0.58
2023-04-04T01:08:02.467Z,-0.63
2023-04-04T01:10:31.868Z,-0.68
2023-04-04T01:13:01.630Z,-0.74
2023-04-04T01:15:30.126Z,-0.81
2023-04-04T01:18:00.397Z,-0.88
2023-04-04T01:20:32.566Z,-0.94
2023-04-04T01:23:02.005Z,-1.01
2023-04-04T01:25:32.299Z,-1.08
2023-04-04T01:28:05.008Z,-1.15
2023-04-04T01:30:35.422Z,-1.19
2023-04-04T01:33:13.916Z,-1.25
2023-04-04T01:35:53.539Z,-1.30
2023-04-04T01:38:34.014Z,-1.35
2023-04-04T01:41:04.008Z,-1.41
2023-04-04T01:43:34.252Z,-1.46
2023-04-04T01:46:03.699Z,-1.51
2023-04-04T01:48:31.974Z,-1.55
2023-04-04T01:51:04.767Z,-1.59
2023-04-04T01:53:33.656Z,-1.63
2023-04-04T01:56:02.052Z,-1.65
2023-04-04T01:58:32.421Z,-1.70
2023-04-04T02:01:00.548Z,-1.75
2023-04-04T02:03:28.717Z,-1.79
2023-04-04T02:05:56.615Z,-1.82
2023-04-04T02:08:24.858Z,-1.86
2023-04-04T02:10:53.891Z,-1.89
2023-04-04T02:13:23.770Z,-1.92
2023-04-04T02:15:52.540Z,-1.93
2023-04-04T02:18:20.906Z,-1.96
2023-04-04T02:20:54.916Z,-1.99
2023-04-04T02:23:22.838Z,-2.03
2023-04-04T02:25:51.431Z,-2.07
2023-04-04T02:28:19.692Z,-2.10
2023-04-04T02:30:49.141Z,-2.11
2023-04-04T02:33:17.318Z,-2.14
2023-04-04T02:35:46.030Z,-2.16
2023-04-04T02:38:14.157Z,-2.20
2023-04-04T02:40:47.953Z,-2.23
2023-04-04T02:43:16.193Z,-2.26
2023-04-04T02:45:44.620Z,-2.30
2023-04-04T02:48:21.673Z,-2.32
2023-04-04T02:50:52.145Z,-2.34
2023-04-04T02:53:20.068Z,-2.37
2023-04-04T02:55:49.615Z,-2.39
2023-04-04T02:58:18.264Z,-2.42
2023-04-04T03:00:49.408Z,-2.45
2023-04-04T03:03:17.518Z,-2.48
2023-04-04T03:05:47.336Z,-2.52
2023-04-04T03:08:15.887Z,-2.55
2023-04-04T03:10:44.912Z,-2.60
2023-04-04T03:13:13.058Z,-2.65
2023-04-04T03:15:41.697Z,-2.69
2023-04-04T03:18:09.747Z,-2.74
2023-04-04T03:20:38.167Z,-2.77
2023-04-04T03:23:06.605Z,-2.82
2023-04-04T03:25:34.564Z,-2.85
2023-04-04T03:28:11.786Z,-2.86
2023-04-04T03:30:40.969Z,-2.88
2023-04-04T03:33:09.991Z,-2.90
2023-04-04T03:35:41.974Z,-2.91
2023-04-04T03:38:10.932Z,-2.94
2023-04-04T03:40:39.843Z,-2.96
2023-04-04T03:43:12.979Z,-2.99
2023-04-04T03:45:41.665Z,-3.00
2023-04-04T03:48:10.721Z,-3.01
2023-04-04T03:50:39.697Z,-3.03
2023-04-04T03:53:07.873Z,-3.04
2023-04-04T03:55:35.861Z,-3.06
2023-04-04T03:58:05.019Z,-3.08
2023-04-04T04:04:52.619Z,-3.13
2023-04-04T04:07:20.664Z,-3.15
2023-04-04T04:09:49.117Z,-3.15
2023-04-04T04:12:17.340Z,-3.14
2023-04-04T04:14:45.203Z,-3.13
2023-04-04T04:17:13.344Z,-3.11
2023-04-04T04:19:41.287Z,-3.07
2023-04-04T04:22:10.356Z,-2.97
2023-04-04T04:24:38.358Z,-2.73
2023-04-04T04:27:06.983Z,-2.42
2023-04-04T04:29:35.075Z,-2.04
2023-04-04T04:34:37.753Z,-1.10
2023-04-04T04:37:06.296Z,-0.59
2023-04-04T04:39:55.658Z,0.02
2023-04-04T04:42:46.462Z,0.63
2023-04-04T04:45:17.123Z,1.22
2023-04-04T04:47:49.522Z,1.76
2023-04-04T04:50:19.248Z,2.30
2023-04-04T04:52:53.036Z,2.77
2023-04-04T04:55:21.320Z,2.91
2023-04-04T04:57:58.633Z,2.73
2023-04-04T05:00:28.963Z,2.51
2023-04-04T05:02:57.174Z,2.35
2023-04-04T05:05:35.111Z,2.12
2023-04-04T05:08:06.010Z,1.93
2023-04-04T05:10:35.649Z,1.75
2023-04-04T05:13:04.127Z,1.63
2023-04-04T05:15:37.123Z,1.62
2023-04-04T05:18:05.801Z,1.64
2023-04-04T05:20:35.552Z,1.70
2023-04-04T05:23:04.842Z,1.76
2023-04-04T05:25:39.654Z,1.83
2023-04-04T05:28:08.412Z,1.96
2023-04-04T05:30:37.502Z,2.06
2023-04-04T05:33:31.927Z,2.20
2023-04-04T05:36:13.030Z,2.36
2023-04-04T05:38:47.129Z,2.55
2023-04-04T05:41:16.349Z,2.76
2023-04-04T05:43:44.877Z,2.99
2023-04-04T05:46:16.790Z,3.21
2023-04-04T05:48:50.884Z,3.36
2023-04-04T05:51:19.602Z,3.57
2023-04-04T05:54:07.546Z,3.77
2023-04-04T05:56:36.041Z,3.96
2023-04-04T05:59:05.993Z,4.11
2023-04-04T06:01:37.017Z,4.25
2023-04-04T06:04:11.597Z,4.40
2023-04-04T06:06:41.340Z,4.38
2023-04-04T06:09:10.051Z,4.32
2023-04-04T06:11:38.502Z,4.43
2023-04-04T06:14:10.074Z,4.41
2023-04-04T06:16:38.362Z,4.43
2023-04-04T06:19:06.413Z,4.44
2023-04-04T06:21:34.315Z,4.36
2023-04-04T06:24:02.702Z,4.48
2023-04-04T06:26:30.898Z,4.63
2023-04-04T06:29:01.197Z,4.82
2023-04-04T06:31:32.645Z,5.13
2023-04-04T06:34:07.146Z,5.47
2023-04-04T06:36:42.023Z,5.68
2023-04-04T06:39:10.054Z,5.87
2023-04-04T06:41:38.561Z,5.86
2023-04-04T06:44:06.800Z,5.88
2023-04-04T06:46:37.662Z,5.85
2023-04-04T06:49:06.410Z,5.86
2023-04-04T06:51:34.978Z,5.85
2023-04-04T06:54:19.032Z,5.72
2023-04-04T06:56:49.950Z,5.72
2023-04-04T06:59:18.517Z,5.98
2023-04-04T07:01:46.569Z,6.20
2023-04-04T07:04:15.018Z,6.25
2023-04-04T07:06:44.054Z,6.32
2023-04-04T07:09:25.950Z,6.41
2023-04-04T07:11:57.045Z,6.71
2023-04-04T07:14:26.102Z,6.94
2023-04-04T07:16:55.342Z,7.42
2023-04-04T07:19:24.708Z,7.81
2023-04-04T07:21:53.735Z,8.28
2023-04-04T07:24:21.844Z,8.33
2023-04-04T07:26:49.852Z,8.04
2023-04-04T07:29:18.491Z,7.94
2023-04-04T07:31:46.600Z,8.15
2023-04-04T07:34:15.038Z,7.86
2023-04-04T07:36:43.482Z,7.49
2023-04-04T07:39:11.643Z,7.63
2023-04-04T07:41:39.875Z,8.19
2023-04-04T07:44:08.133Z,8.21
2023-04-04T07:46:36.299Z,7.81
2023-04-04T07:49:04.337Z,7.66
2023-04-04T07:51:32.880Z,7.87
2023-04-04T07:54:02.432Z,7.98
2023-04-04T07:56:30.598Z,7.76
2023-04-04T07:58:58.587Z,7.48
2023-04-04T08:01:27.128Z,7.14
2023-04-04T08:03:55.280Z,6.82
2023-04-04T08:06:23.775Z,6.98
2023-04-04T08:08:52.415Z,7.17
2023-04-04T08:11:20.440Z,7.03
2023-04-04T08:13:48.960Z,7.02
2023-04-04T08:16:17.748Z,7.25
2023-04-04T08:18:45.821Z,7.78
2023-04-04T08:21:13.967Z,8.10
2023-04-04T08:23:41.920Z,8.44
2023-04-04T08:26:10.066Z,8.83
2023-04-04T08:28:38.805Z,8.99
2023-04-04T08:31:06.865Z,8.93
2023-04-04T08:33:46.647Z,9.12
2023-04-04T08:36:16.379Z,8.88
2023-04-04T08:38:44.694Z,8.33
2023-04-04T08:41:13.478Z,7.77
2023-04-04T08:43:46.561Z,7.51
2023-04-04T08:46:15.926Z,7.54
2023-04-04T08:48:45.021Z,7.69
2023-04-04T08:51:14.905Z,7.87
2023-04-04T08:53:43.015Z,8.10
2023-04-04T08:56:11.237Z,8.02
2023-04-04T08:58:39.599Z,7.48
2023-04-04T09:01:08.288Z,6.89
2023-04-04T09:03:38.177Z,6.77
2023-04-04T09:06:07.352Z,7.00
2023-04-04T09:08:35.573Z,7.25
2023-04-04T09:11:04.547Z,7.29
2023-04-04T09:13:32.665Z,7.01
2023-04-04T09:16:01.330Z,6.50
2023-04-04T09:18:30.077Z,6.25
2023-04-04T09:20:58.170Z,6.28
2023-04-04T09:23:26.175Z,6.18
2023-04-04T09:26:04.113Z,5.89
2023-04-04T09:28:33.793Z,5.51
2023-04-04T09:31:06.994Z,5.32
2023-04-04T09:33:35.475Z,5.30
2023-04-04T09:36:13.453Z,5.44
2023-04-04T09:38:45.880Z,5.75
2023-04-04T09:41:16.190Z,6.05
2023-04-04T09:43:45.647Z,6.03
2023-04-04T09:46:13.733Z,5.83
2023-04-04T09:48:50.552Z,5.70
2023-04-04T09:51:19.084Z,5.83
2023-04-04T09:53:51.982Z,6.12
2023-04-04T09:56:20.276Z,6.49
2023-04-04T09:59:02.392Z,6.54
2023-04-04T10:01:31.584Z,6.32
2023-04-04T10:04:00.033Z,6.06
2023-04-04T10:06:28.681Z,5.86
2023-04-04T10:08:58.490Z,5.78
2023-04-04T10:11:31.829Z,5.68
2023-04-04T10:14:02.792Z,5.54
2023-04-04T10:16:37.168Z,5.34
2023-04-04T10:19:08.085Z,5.13
2023-04-04T10:21:36.837Z,4.94
2023-04-04T10:24:10.015Z,4.81
2023-04-04T10:26:38.614Z,4.69
2023-04-04T10:29:06.910Z,4.69
2023-04-04T10:31:41.158Z,4.65
2023-04-04T10:34:28.521Z,4.62
2023-04-04T10:37:24.844Z,4.59
2023-04-04T10:40:08.072Z,4.51
2023-04-04T10:42:40.709Z,4.43
2023-04-04T10:45:20.525Z,4.34
2023-04-04T10:47:51.726Z,4.24
2023-04-04T10:50:20.987Z,4.20
2023-04-04T10:52:50.569Z,4.15
2023-04-04T10:55:20.016Z,4.12
2023-04-04T10:57:52.578Z,4.12
2023-04-04T11:04:48.072Z,4.29
2023-04-04T11:07:17.672Z,4.38
2023-04-04T11:09:54.104Z,4.45
2023-04-04T11:12:33.698Z,4.55
2023-04-04T11:15:13.062Z,4.65
2023-04-04T11:17:46.019Z,4.64
2023-04-04T11:20:28.505Z,4.65
2023-04-04T11:23:09.028Z,4.67
2023-04-04T11:25:42.148Z,4.71
2023-04-04T11:28:15.371Z,4.72
2023-04-04T11:30:48.508Z,4.68
2023-04-04T11:33:27.615Z,4.66
2023-04-04T11:36:01.284Z,4.66
2023-04-04T11:38:29.880Z,4.69
2023-04-04T11:40:57.951Z,4.69
2023-04-04T11:43:27.035Z,4.67
2023-04-04T11:46:06.912Z,4.60
2023-04-04T11:48:35.067Z,4.49
2023-04-04T11:51:04.064Z,4.40
2023-04-04T11:53:33.313Z,4.38
2023-04-04T11:56:01.822Z,4.37
2023-04-04T11:58:29.980Z,4.33
2023-04-04T12:00:57.909Z,4.31
2023-04-04T12:03:30.088Z,4.26
2023-04-04T12:05:59.493Z,4.21
2023-04-04T12:08:28.225Z,4.15
2023-04-04T12:10:57.768Z,4.05
2023-04-04T12:13:31.445Z,3.96
2023-04-04T12:16:00.811Z,3.94
2023-04-04T12:18:29.823Z,3.99
2023-04-04T12:20:58.030Z,4.04
2023-04-04T12:23:27.675Z,4.06
2023-04-04T12:25:56.996Z,4.04
2023-04-04T12:28:27.299Z,4.04
2023-04-04T12:30:56.821Z,4.07
2023-04-04T12:33:24.840Z,4.12
2023-04-04T12:35:53.730Z,4.21
2023-04-04T12:38:21.912Z,4.28
2023-04-04T12:40:51.776Z,4.32
2023-04-04T12:43:20.856Z,4.33
2023-04-04T12:45:54.948Z,4.31
2023-04-04T12:48:29.029Z,4.24
2023-04-04T12:50:58.637Z,4.18
2023-04-04T12:53:29.534Z,4.19
2023-04-04T12:56:04.700Z,4.21
2023-04-04T12:58:35.843Z,4.28
2023-04-04T13:01:05.747Z,4.31
2023-04-04T13:03:34.756Z,4.33
2023-04-04T13:06:03.107Z,4.35
2023-04-04T13:08:31.772Z,4.37
2023-04-04T13:11:05.253Z,4.42
2023-04-04T13:13:41.061Z,4.44
2023-04-04T13:16:11.829Z,4.46
2023-04-04T13:18:44.302Z,4.48
2023-04-04T13:21:13.784Z,4.47
2023-04-04T13:23:41.892Z,4.44
2023-04-04T13:26:11.183Z,4.42
2023-04-04T13:28:39.337Z,4.44
2023-04-04T13:31:10.059Z,4.49
2023-04-04T13:33:38.152Z,4.48
2023-04-04T13:36:24.179Z,4.42
2023-04-04T13:38:52.218Z,4.42
2023-04-04T13:41:20.701Z,4.38
2023-04-04T13:43:49.272Z,4.34
2023-04-04T13:46:17.878Z,4.29
2023-04-04T13:48:46.361Z,4.26
2023-04-04T13:51:14.477Z,4.25
2023-04-04T13:53:42.469Z,4.27
2023-04-04T13:56:17.921Z,4.28
2023-04-04T13:58:47.244Z,4.29
2023-04-04T14:01:15.498Z,4.31
2023-04-04T14:03:43.876Z,4.33
2023-04-04T14:06:12.547Z,4.28
2023-04-04T14:08:40.527Z,4.24
2023-04-04T14:11:08.663Z,4.20
2023-04-04T14:13:36.902Z,4.15
2023-04-04T14:16:05.295Z,4.12
2023-04-04T14:18:34.632Z,4.08
2023-04-04T14:21:03.656Z,4.05
2023-04-04T14:23:31.945Z,4.05
2023-04-04T14:26:00.702Z,4.04
2023-04-04T14:28:28.962Z,4.06
2023-04-04T14:30:56.906Z,4.04
2023-04-04T14:33:25.180Z,4.00
2023-04-04T14:35:53.274Z,3.98
2023-04-04T14:38:21.366Z,3.94
2023-04-04T14:40:49.595Z,3.88
2023-04-04T14:43:17.651Z,3.81
2023-04-04T14:45:45.918Z,3.77
2023-04-04T14:48:14.278Z,3.76
2023-04-04T14:50:42.941Z,3.78
2023-04-04T14:53:11.118Z,3.79
2023-04-04T14:55:39.549Z,3.77
2023-04-04T14:58:08.722Z,3.77
2023-04-04T15:00:36.760Z,3.74
2023-04-04T15:03:07.374Z,3.68
2023-04-04T15:05:35.661Z,3.61
2023-04-04T15:08:04.085Z,3.60
2023-04-04T15:10:32.128Z,3.59
2023-04-04T15:13:00.252Z,3.55
2023-04-04T15:15:29.191Z,3.53
2023-04-04T15:17:57.992Z,3.48
2023-04-04T15:20:27.180Z,3.46
2023-04-04T15:22:56.363Z,3.43
2023-04-04T15:25:24.540Z,3.41
2023-04-04T15:27:52.975Z,3.35
2023-04-04T15:30:21.295Z,3.24
2023-04-04T15:32:50.469Z,3.17
2023-04-04T15:35:22.105Z,3.18
2023-04-04T15:37:51.521Z,3.23
2023-04-04T15:40:19.984Z,3.30
2023-04-04T15:42:48.473Z,3.33
2023-04-04T15:45:16.684Z,3.32
2023-04-04T15:47:45.359Z,3.28
2023-04-04T15:50:13.546Z,3.23
2023-04-04T15:52:41.937Z,3.20
2023-04-04T15:55:17.114Z,3.17
2023-04-04T15:57:46.028Z,3.14
2023-04-04T16:00:14.611Z,3.13
2023-04-04T16:02:43.102Z,3.12
2023-04-04T16:05:21.102Z,3.09
2023-04-04T16:07:50.030Z,3.05
2023-04-04T16:10:18.569Z,3.02
2023-04-04T16:12:46.565Z,3.01
2023-04-04T16:15:14.705Z,2.99
2023-04-04T16:17:42.781Z,2.98
2023-04-04T16:20:12.098Z,2.96
2023-04-04T16:22:40.054Z,2.93
2023-04-04T16:25:08.992Z,2.89
2023-04-04T16:27:37.406Z,2.83
2023-04-04T16:30:06.320Z,2.77
2023-04-04T16:32:34.590Z,2.73
2023-04-04T16:35:02.906Z,2.69
2023-04-04T16:37:30.979Z,2.63
2023-04-04T16:40:01.518Z,2.57
2023-04-04T16:42:30.068Z,2.52
2023-04-04T16:44:58.320Z,2.49
2023-04-04T16:47:28.031Z,2.46
2023-04-04T16:49:56.464Z,2.44
2023-04-04T16:52:24.708Z,2.42
2023-04-04T16:54:54.451Z,2.42
2023-04-04T16:57:23.104Z,2.40
2023-04-04T16:59:51.882Z,2.37
2023-04-04T17:02:20.294Z,2.35
2023-04-04T17:04:51.212Z,2.33
2023-04-04T17:07:20.946Z,2.31
2023-04-04T17:09:50.714Z,2.28
2023-04-04T17:12:20.315Z,2.25
2023-04-04T17:14:48.206Z,2.20
2023-04-04T17:17:17.457Z,2.16
2023-04-04T17:19:45.882Z,2.11
2023-04-04T17:22:14.117Z,2.06
2023-04-04T17:24:42.516Z,2.01
2023-04-04T17:27:10.875Z,1.97
2023-04-04T17:29:39.258Z,1.93
2023-04-04T17:32:07.814Z,1.90
2023-04-04T17:34:35.811Z,1.85
2023-04-04T17:37:04.199Z,1.81
2023-04-04T17:39:32.805Z,1.77
2023-04-04T17:42:03.395Z,1.73
2023-04-04T17:44:31.981Z,1.69
2023-04-04T17:47:00.521Z,1.67
2023-04-04T17:49:29.506Z,1.63
2023-04-04T17:51:58.255Z,1.60
2023-04-04T17:54:29.615Z,1.56
2023-04-04T17:56:57.753Z,1.53
2023-04-04T17:59:25.797Z,1.49
2023-04-04T18:01:54.097Z,1.46
2023-04-04T18:04:23.979Z,1.42
2023-04-04T18:06:52.450Z,1.37
2023-04-04T18:09:20.967Z,1.33
2023-04-04T18:11:50.721Z,1.31
2023-04-04T18:14:19.457Z,1.27
2023-04-04T18:16:47.616Z,1.24
2023-04-04T18:19:15.744Z,1.19
2023-04-04T18:21:48.738Z,1.13
2023-04-04T18:24:17.537Z,1.08
2023-04-04T18:26:46.048Z,1.04
2023-04-04T18:29:14.981Z,0.99
2023-04-04T18:31:43.162Z,0.94
2023-04-04T18:34:15.214Z,0.88
2023-04-04T18:36:43.901Z,0.79
2023-04-04T18:39:12.449Z,0.72
2023-04-04T18:41:40.697Z,0.66
2023-04-04T18:44:09.194Z,0.61
2023-04-04T18:46:39.325Z,0.56
2023-04-04T18:49:07.983Z,0.50
2023-04-04T18:51:36.892Z,0.42
2023-04-04T18:54:05.332Z,0.35
2023-04-04T18:56:33.327Z,0.26
2023-04-04T18:59:02.268Z,0.21
2023-04-04T19:04:40.281Z,0.08
2023-04-04T19:07:11.008Z,0.01
2023-04-04T19:09:41.127Z,-0.05
2023-04-04T19:12:09.721Z,-0.11
2023-04-04T19:14:37.983Z,-0.17
2023-04-04T19:17:06.058Z,-0.23
2023-04-04T19:19:34.545Z,-0.31
2023-04-04T19:22:03.752Z,-0.37
2023-04-04T19:24:33.348Z,-0.46
2023-04-04T19:27:03.122Z,-0.55
2023-04-04T19:29:32.172Z,-0.63
2023-04-04T19:32:05.671Z,-0.70
2023-04-04T19:34:34.337Z,-0.79
2023-04-04T19:37:02.668Z,-0.87
2023-04-04T19:39:33.668Z,-0.93
2023-04-04T19:42:02.160Z,-1.01
2023-04-04T19:44:31.441Z,-1.09
2023-04-04T19:47:01.094Z,-1.17
2023-04-04T19:49:30.662Z,-1.26
2023-04-04T19:52:01.185Z,-1.35
2023-04-04T19:54:34.423Z,-1.42
2023-04-04T19:57:09.009Z,-1.48
2023-04-04T20:00:02.060Z,-1.53
2023-04-04T20:02:36.691Z,-1.60
2023-04-04T20:05:53.789Z,-1.65
2023-04-04T20:08:21.870Z,-1.72
2023-04-04T20:10:53.547Z,-1.76
2023-04-04T20:13:21.514Z,-1.81
2023-04-04T20:15:50.055Z,-1.86
2023-04-04T20:18:25.519Z,-1.90
2023-04-04T20:21:00.372Z,-1.95
2023-04-04T20:23:31.440Z,-1.99
2023-04-04T20:26:08.796Z,-2.04
2023-04-04T20:28:37.172Z,-2.08
2023-04-04T20:31:12.220Z,-2.10
2023-04-04T20:33:40.853Z,-2.13
2023-04-04T20:36:30.212Z,-2.16
2023-04-04T20:38:59.297Z,-2.19
2023-04-04T20:41:27.473Z,-2.23
2023-04-04T20:43:57.587Z,-2.25
2023-04-04T20:46:27.591Z,-2.30
2023-04-04T20:48:58.324Z,-2.34
2023-04-04T20:51:31.185Z,-2.38
2023-04-04T20:54:02.458Z,-2.44
2023-04-04T20:56:40.596Z,-2.50
2023-04-04T20:59:31.537Z,-2.57
2023-04-04T21:02:16.641Z,-2.62
2023-04-04T21:04:46.207Z,-2.69
2023-04-04T21:07:36.517Z,-2.76
2023-04-04T21:10:21.667Z,-2.84
2023-04-04T21:12:51.456Z,-2.90
2023-04-04T21:15:28.615Z,-2.95
2023-04-04T21:18:00.852Z,-3.00
2023-04-04T21:20:47.205Z,-3.04
2023-04-04T21:23:27.636Z,-3.09
2023-04-04T21:25:57.965Z,-3.12
2023-04-04T21:28:31.298Z,-3.13
2023-04-04T21:31:00.677Z,-3.14
2023-04-04T21:33:28.790Z,-3.15
2023-04-04T21:35:56.768Z,-3.15
2023-04-04T21:38:35.336Z,-3.16
2023-04-04T21:41:30.696Z,-3.16
2023-04-04T21:44:07.254Z,-3.20
2023-04-04T21:46:38.041Z,-3.25
2023-04-04T21:49:07.932Z,-3.30
2023-04-04T21:51:36.887Z,-3.32
2023-04-04T21:54:05.592Z,-3.33
2023-04-04T21:56:33.924Z,-3.35
2023-04-04T21:59:04.486Z,-3.39
2023-04-04T22:01:32.806Z,-3.40
2023-04-04T22:04:02.232Z,-3.41
2023-04-04T22:06:31.112Z,-3.43
2023-04-04T22:09:01.929Z,-3.43
2023-04-04T22:11:30.401Z,-3.45
2023-04-04T22:14:04.905Z,-3.48
2023-04-04T22:16:39.653Z,-3.52
2023-04-04T22:19:11.719Z,-3.57
2023-04-04T22:21:48.216Z,-3.60
2023-04-04T22:24:18.482Z,-3.64
2023-04-04T22:26:47.021Z,-3.68
2023-04-04T22:29:15.020Z,-3.71
2023-04-04T22:31:43.441Z,-3.74
2023-04-04T22:34:14.691Z,-3.76
2023-04-04T22:36:43.843Z,-3.78
2023-04-04T22:39:16.351Z,-3.80
2023-04-04T22:41:44.534Z,-3.83
2023-04-04T22:44:13.265Z,-3.88
2023-04-04T22:46:41.729Z,-3.93
2023-04-04T22:49:10.055Z,-3.98
2023-04-04T22:51:45.661Z,-4.01
2023-04-04T22:54:15.419Z,-4.04
2023-04-04T22:56:43.696Z,-4.05
2023-04-04T22:59:12.398Z,-4.07
2023-04-04T23:01:40.551Z,-4.09
2023-04-04T23:04:08.771Z,-4.09
2023-04-04T23:06:38.583Z,-4.11
2023-04-04T23:09:08.177Z,-4.14
2023-04-04T23:11:38.147Z,-4.18
2023-04-04T23:14:08.589Z,-4.22
2023-04-04T23:16:37.417Z,-4.25
2023-04-04T23:19:05.692Z,-4.28
2023-04-04T23:21:34.396Z,-4.30
2023-04-04T23:24:07.208Z,-4.33
2023-04-04T23:26:35.751Z,-4.35
2023-04-04T23:29:03.992Z,-4.38
2023-04-04T23:31:32.051Z,-4.41
2023-04-04T23:34:00.818Z,-4.44
2023-04-04T23:36:29.779Z,-4.46
2023-04-04T23:38:57.735Z,-4.48
2023-04-04T23:41:26.700Z,-4.50
2023-04-04T23:43:54.958Z,-4.51
2023-04-04T23:46:24.002Z,-4.52
2023-04-04T23:48:52.111Z,-4.55
2023-04-04T23:51:21.705Z,-4.58
2023-04-04T23:53:49.926Z,-4.59
2023-04-04T23:56:18.326Z,-4.61
2023-04-04T23:58:46.416Z,-4.63
